sensor_id;sensor_type;location;lat;lon;timestamp;P1;durP1;ratioP1;P2;durP2;ratioP2
19231;SDS011;9750;48.730;10.294;2024-03-02T00:01:06;20.30;;;17.67;;
19231;SDS011;9750;48.730;10.294;2024-03-02T00:03:33;22.23;;;18.33;;
19231;SDS011;9750;48.730;10.294;2024-03-02T00:06:01;21.03;;;17.60;;
19231;SDS011;9750;48.730;10.294;2024-03-02T00:08:28;107.83;;;78.07;;
19231;SDS011;9750;48.730;10.294;2024-03-02T00:10:57;24.43;;;18.73;;
19231;SDS011;9750;48.730;10.294;2024-03-02T00:13:26;21.77;;;18.07;;
19231;SDS011;9750;48.730;10.294;2024-03-02T00:15:55;25.53;;;19.53;;
19231;SDS011;9750;48.730;10.294;2024-03-02T00:18:24;21.57;;;17.87;;
19231;SDS011;9750;48.730;10.294;2024-03-02T00:20:53;19.70;;;16.47;;
19231;SDS011;9750;48.730;10.294;2024-03-02T00:23:22;19.17;;;15.97;;
19231;SDS011;9750;48.730;10.294;2024-03-02T00:25:50;18.73;;;16.37;;
19231;SDS011;9750;48.730;10.294;2024-03-02T00:28:20;20.83;;;16.70;;
19231;SDS011;9750;48.730;10.294;2024-03-02T00:30:56;19.93;;;16.83;;
19231;SDS011;9750;48.730;10.294;2024-03-02T00:33:26;20.00;;;16.47;;
19231;SDS011;9750;48.730;10.294;2024-03-02T00:35:57;19.93;;;16.30;;
19231;SDS011;9750;48.730;10.294;2024-03-02T00:38:25;18.70;;;16.27;;
19231;SDS011;9750;48.730;10.294;2024-03-02T00:40:52;20.97;;;17.07;;
19231;SDS011;9750;48.730;10.294;2024-03-02T00:46:16;16.80;;;14.83;;
19231;SDS011;9750;48.730;10.294;2024-03-02T00:48:48;18.67;;;16.03;;
19231;SDS011;9750;48.730;10.294;2024-03-02T00:51:19;18.43;;;15.03;;
19231;SDS011;9750;48.730;10.294;2024-03-02T00:53:47;17.33;;;15.20;;
19231;SDS011;9750;48.730;10.294;2024-03-02T00:56:14;21.43;;;17.03;;
19231;SDS011;9750;48.730;10.294;2024-03-02T00:58:42;18.27;;;15.90;;
19231;SDS011;9750;48.730;10.294;2024-03-02T01:01:09;23.27;;;18.30;;
19231;SDS011;9750;48.730;10.294;2024-03-02T01:03:38;19.27;;;15.60;;
19231;SDS011;9750;48.730;10.294;2024-03-02T01:06:06;20.73;;;16.17;;
19231;SDS011;9750;48.730;10.294;2024-03-02T01:08:34;20.10;;;17.43;;
19231;SDS011;9750;48.730;10.294;2024-03-02T01:11:02;19.83;;;16.30;;
19231;SDS011;9750;48.730;10.294;2024-03-02T01:13:30;22.13;;;15.47;;
19231;SDS011;9750;48.730;10.294;2024-03-02T01:15:57;17.80;;;15.60;;
19231;SDS011;9750;48.730;10.294;2024-03-02T01:18:25;17.00;;;15.20;;
19231;SDS011;9750;48.730;10.294;2024-03-02T01:20:53;18.83;;;16.00;;
19231;SDS011;9750;48.730;10.294;2024-03-02T01:23:21;18.07;;;15.67;;
19231;SDS011;9750;48.730;10.294;2024-03-02T01:25:49;17.77;;;15.87;;
19231;SDS011;9750;48.730;10.294;2024-03-02T01:28:16;21.37;;;17.90;;
19231;SDS011;9750;48.730;10.294;2024-03-02T01:30:46;18.67;;;16.37;;
19231;SDS011;9750;48.730;10.294;2024-03-02T01:33:14;20.67;;;16.70;;
19231;SDS011;9750;48.730;10.294;2024-03-02T01:35:42;19.93;;;17.20;;
19231;SDS011;9750;48.730;10.294;2024-03-02T01:38:10;20.33;;;16.97;;
19231;SDS011;9750;48.730;10.294;2024-03-02T01:40:38;18.57;;;16.23;;
19231;SDS011;9750;48.730;10.294;2024-03-02T01:43:05;19.37;;;16.60;;
19231;SDS011;9750;48.730;10.294;2024-03-02T01:45:33;20.10;;;17.90;;
19231;SDS011;9750;48.730;10.294;2024-03-02T01:48:00;19.23;;;16.90;;
19231;SDS011;9750;48.730;10.294;2024-03-02T01:50:28;21.00;;;17.83;;
19231;SDS011;9750;48.730;10.294;2024-03-02T01:52:58;20.50;;;17.23;;
19231;SDS011;9750;48.730;10.294;2024-03-02T01:55:27;19.13;;;17.10;;
19231;SDS011;9750;48.730;10.294;2024-03-02T01:57:55;21.70;;;18.67;;
19231;SDS011;9750;48.730;10.294;2024-03-02T02:00:23;22.53;;;18.67;;
19231;SDS011;9750;48.730;10.294;2024-03-02T02:02:51;20.27;;;17.20;;
19231;SDS011;9750;48.730;10.294;2024-03-02T02:05:19;19.47;;;16.43;;
19231;SDS011;9750;48.730;10.294;2024-03-02T02:07:46;20.17;;;16.77;;
19231;SDS011;9750;48.730;10.294;2024-03-02T02:10:14;19.33;;;17.23;;
19231;SDS011;9750;48.730;10.294;2024-03-02T02:12:43;19.10;;;16.57;;
19231;SDS011;9750;48.730;10.294;2024-03-02T02:15:23;18.83;;;16.83;;
19231;SDS011;9750;48.730;10.294;2024-03-02T02:17:51;21.27;;;18.00;;
19231;SDS011;9750;48.730;10.294;2024-03-02T02:20:19;20.30;;;17.37;;
19231;SDS011;9750;48.730;10.294;2024-03-02T02:22:55;21.47;;;17.83;;
19231;SDS011;9750;48.730;10.294;2024-03-02T02:25:23;20.37;;;17.60;;
19231;SDS011;9750;48.730;10.294;2024-03-02T02:27:50;26.63;;;20.77;;
19231;SDS011;9750;48.730;10.294;2024-03-02T02:30:18;23.77;;;19.80;;
19231;SDS011;9750;48.730;10.294;2024-03-02T02:32:47;22.40;;;18.57;;
19231;SDS011;9750;48.730;10.294;2024-03-02T02:35:16;20.63;;;16.93;;
19231;SDS011;9750;48.730;10.294;2024-03-02T02:37:44;24.27;;;19.97;;
19231;SDS011;9750;48.730;10.294;2024-03-02T02:40:14;21.87;;;18.80;;
19231;SDS011;9750;48.730;10.294;2024-03-02T02:42:44;19.67;;;17.37;;
19231;SDS011;9750;48.730;10.294;2024-03-02T02:45:11;20.63;;;18.10;;
19231;SDS011;9750;48.730;10.294;2024-03-02T02:47:39;22.40;;;18.47;;
19231;SDS011;9750;48.730;10.294;2024-03-02T02:50:07;19.53;;;17.43;;
19231;SDS011;9750;48.730;10.294;2024-03-02T02:52:35;21.00;;;18.17;;
19231;SDS011;9750;48.730;10.294;2024-03-02T02:55:05;23.80;;;19.13;;
19231;SDS011;9750;48.730;10.294;2024-03-02T02:57:35;23.53;;;19.43;;
19231;SDS011;9750;48.730;10.294;2024-03-02T03:00:05;22.97;;;19.80;;
19231;SDS011;9750;48.730;10.294;2024-03-02T03:02:38;21.77;;;18.50;;
19231;SDS011;9750;48.730;10.294;2024-03-02T03:07:55;28.73;;;21.90;;
19231;SDS011;9750;48.730;10.294;2024-03-02T03:10:23;26.40;;;20.63;;
19231;SDS011;9750;48.730;10.294;2024-03-02T03:12:53;26.60;;;20.37;;
19231;SDS011;9750;48.730;10.294;2024-03-02T03:15:21;26.20;;;20.13;;
19231;SDS011;9750;48.730;10.294;2024-03-02T03:17:48;28.60;;;21.73;;
19231;SDS011;9750;48.730;10.294;2024-03-02T03:20:16;28.17;;;22.47;;
19231;SDS011;9750;48.730;10.294;2024-03-02T03:22:43;23.10;;;20.03;;
19231;SDS011;9750;48.730;10.294;2024-03-02T03:25:10;26.30;;;20.77;;
19231;SDS011;9750;48.730;10.294;2024-03-02T03:27:37;30.13;;;22.77;;
19231;SDS011;9750;48.730;10.294;2024-03-02T03:30:07;32.20;;;22.97;;
19231;SDS011;9750;48.730;10.294;2024-03-02T03:32:34;28.17;;;21.97;;
19231;SDS011;9750;48.730;10.294;2024-03-02T03:35:02;31.70;;;22.40;;
19231;SDS011;9750;48.730;10.294;2024-03-02T03:37:30;32.40;;;23.60;;
19231;SDS011;9750;48.730;10.294;2024-03-02T03:39:58;35.17;;;24.80;;
19231;SDS011;9750;48.730;10.294;2024-03-02T03:42:26;35.03;;;24.57;;
19231;SDS011;9750;48.730;10.294;2024-03-02T03:44:53;37.23;;;25.40;;
19231;SDS011;9750;48.730;10.294;2024-03-02T03:47:22;37.97;;;25.43;;
19231;SDS011;9750;48.730;10.294;2024-03-02T03:49:49;35.37;;;24.43;;
19231;SDS011;9750;48.730;10.294;2024-03-02T03:52:16;36.97;;;24.53;;
19231;SDS011;9750;48.730;10.294;2024-03-02T03:54:43;34.47;;;24.63;;
19231;SDS011;9750;48.730;10.294;2024-03-02T03:57:11;30.50;;;22.90;;
19231;SDS011;9750;48.730;10.294;2024-03-02T03:59:38;29.90;;;22.30;;
19231;SDS011;9750;48.730;10.294;2024-03-02T04:02:05;32.53;;;22.90;;
19231;SDS011;9750;48.730;10.294;2024-03-02T04:04:35;28.90;;;21.60;;
19231;SDS011;9750;48.730;10.294;2024-03-02T04:07:02;30.90;;;23.10;;
19231;SDS011;9750;48.730;10.294;2024-03-02T04:09:29;29.33;;;21.40;;
19231;SDS011;9750;48.730;10.294;2024-03-02T04:11:57;30.97;;;20.67;;
19231;SDS011;9750;48.730;10.294;2024-03-02T04:14:24;29.03;;;21.43;;
19231;SDS011;9750;48.730;10.294;2024-03-02T04:16:51;33.93;;;22.40;;
19231;SDS011;9750;48.730;10.294;2024-03-02T04:19:19;30.87;;;22.27;;
19231;SDS011;9750;48.730;10.294;2024-03-02T04:21:47;39.00;;;22.43;;
19231;SDS011;9750;48.730;10.294;2024-03-02T04:24:15;24.63;;;20.13;;
19231;SDS011;9750;48.730;10.294;2024-03-02T04:26:42;29.33;;;21.13;;
19231;SDS011;9750;48.730;10.294;2024-03-02T04:29:09;41.17;;;21.87;;
19231;SDS011;9750;48.730;10.294;2024-03-02T04:31:36;41.37;;;21.57;;
19231;SDS011;9750;48.730;10.294;2024-03-02T04:34:03;67.73;;;25.30;;
19231;SDS011;9750;48.730;10.294;2024-03-02T04:36:31;34.13;;;22.17;;
19231;SDS011;9750;48.730;10.294;2024-03-02T04:38:59;39.13;;;20.97;;
19231;SDS011;9750;48.730;10.294;2024-03-02T04:41:27;32.50;;;21.00;;
19231;SDS011;9750;48.730;10.294;2024-03-02T04:43:54;27.10;;;20.03;;
19231;SDS011;9750;48.730;10.294;2024-03-02T04:46:21;30.83;;;21.93;;
19231;SDS011;9750;48.730;10.294;2024-03-02T04:48:50;37.67;;;21.43;;
19231;SDS011;9750;48.730;10.294;2024-03-02T04:51:20;41.60;;;23.43;;
19231;SDS011;9750;48.730;10.294;2024-03-02T04:53:48;32.00;;;22.23;;
19231;SDS011;9750;48.730;10.294;2024-03-02T04:56:16;75.87;;;23.70;;
19231;SDS011;9750;48.730;10.294;2024-03-02T04:59:05;34.20;;;21.50;;
19231;SDS011;9750;48.730;10.294;2024-03-02T05:01:32;38.83;;;21.60;;
19231;SDS011;9750;48.730;10.294;2024-03-02T05:04:00;90.30;;;28.40;;
19231;SDS011;9750;48.730;10.294;2024-03-02T05:06:27;65.47;;;23.63;;
19231;SDS011;9750;48.730;10.294;2024-03-02T05:08:55;77.10;;;26.20;;
19231;SDS011;9750;48.730;10.294;2024-03-02T05:11:24;61.87;;;25.70;;
19231;SDS011;9750;48.730;10.294;2024-03-02T05:14:08;58.70;;;23.00;;
19231;SDS011;9750;48.730;10.294;2024-03-02T05:16:36;51.97;;;23.23;;
19231;SDS011;9750;48.730;10.294;2024-03-02T05:19:03;44.20;;;22.90;;
19231;SDS011;9750;48.730;10.294;2024-03-02T05:21:32;52.20;;;21.50;;
19231;SDS011;9750;48.730;10.294;2024-03-02T05:23:59;39.10;;;21.93;;
19231;SDS011;9750;48.730;10.294;2024-03-02T05:26:29;47.87;;;22.57;;
19231;SDS011;9750;48.730;10.294;2024-03-02T05:28:56;53.03;;;23.23;;
19231;SDS011;9750;48.730;10.294;2024-03-02T05:31:24;67.17;;;24.83;;
19231;SDS011;9750;48.730;10.294;2024-03-02T05:33:51;36.33;;;21.70;;
19231;SDS011;9750;48.730;10.294;2024-03-02T05:36:18;91.73;;;24.70;;
19231;SDS011;9750;48.730;10.294;2024-03-02T05:38:46;71.33;;;23.17;;
19231;SDS011;9750;48.730;10.294;2024-03-02T05:41:13;60.20;;;21.73;;
19231;SDS011;9750;48.730;10.294;2024-03-02T05:43:42;95.60;;;22.53;;
19231;SDS011;9750;48.730;10.294;2024-03-02T05:46:09;84.70;;;24.27;;
19231;SDS011;9750;48.730;10.294;2024-03-02T05:48:37;69.47;;;23.93;;
19231;SDS011;9750;48.730;10.294;2024-03-02T05:51:04;95.47;;;26.93;;
19231;SDS011;9750;48.730;10.294;2024-03-02T05:53:31;55.13;;;22.83;;
19231;SDS011;9750;48.730;10.294;2024-03-02T05:55:58;39.77;;;21.17;;
19231;SDS011;9750;48.730;10.294;2024-03-02T05:58:26;83.97;;;22.43;;
19231;SDS011;9750;48.730;10.294;2024-03-02T06:01:04;109.13;;;23.27;;
19231;SDS011;9750;48.730;10.294;2024-03-02T06:03:31;69.17;;;23.37;;
19231;SDS011;9750;48.730;10.294;2024-03-02T06:09:20;86.33;;;21.83;;
19231;SDS011;9750;48.730;10.294;2024-03-02T06:11:49;100.60;;;22.90;;
19231;SDS011;9750;48.730;10.294;2024-03-02T06:14:17;98.87;;;23.00;;
19231;SDS011;9750;48.730;10.294;2024-03-02T06:16:45;55.17;;;21.13;;
19231;SDS011;9750;48.730;10.294;2024-03-02T06:19:13;61.87;;;21.50;;
19231;SDS011;9750;48.730;10.294;2024-03-02T06:21:40;95.83;;;23.33;;
19231;SDS011;9750;48.730;10.294;2024-03-02T06:24:07;57.83;;;20.10;;
19231;SDS011;9750;48.730;10.294;2024-03-02T06:26:34;95.80;;;24.87;;
19231;SDS011;9750;48.730;10.294;2024-03-02T06:29:02;53.77;;;20.33;;
19231;SDS011;9750;48.730;10.294;2024-03-02T06:31:29;54.57;;;20.23;;
19231;SDS011;9750;48.730;10.294;2024-03-02T06:33:58;50.40;;;18.33;;
19231;SDS011;9750;48.730;10.294;2024-03-02T06:36:25;46.83;;;19.87;;
19231;SDS011;9750;48.730;10.294;2024-03-02T06:38:52;107.83;;;23.53;;
19231;SDS011;9750;48.730;10.294;2024-03-02T06:41:19;60.93;;;20.00;;
19231;SDS011;9750;48.730;10.294;2024-03-02T06:43:47;30.97;;;18.80;;
19231;SDS011;9750;48.730;10.294;2024-03-02T06:46:14;57.87;;;18.20;;
19231;SDS011;9750;48.730;10.294;2024-03-02T06:48:41;36.10;;;16.07;;
19231;SDS011;9750;48.730;10.294;2024-03-02T06:51:10;36.40;;;17.03;;
19231;SDS011;9750;48.730;10.294;2024-03-02T06:53:37;26.50;;;16.67;;
19231;SDS011;9750;48.730;10.294;2024-03-02T06:56:05;55.40;;;18.73;;
19231;SDS011;9750;48.730;10.294;2024-03-02T06:58:34;22.40;;;16.33;;
19231;SDS011;9750;48.730;10.294;2024-03-02T07:01:01;37.87;;;18.17;;
19231;SDS011;9750;48.730;10.294;2024-03-02T07:03:30;22.80;;;16.03;;
19231;SDS011;9750;48.730;10.294;2024-03-02T07:05:59;57.37;;;20.37;;
19231;SDS011;9750;48.730;10.294;2024-03-02T07:08:28;31.17;;;17.20;;
19231;SDS011;9750;48.730;10.294;2024-03-02T07:10:55;42.23;;;18.40;;
19231;SDS011;9750;48.730;10.294;2024-03-02T07:13:22;27.80;;;16.00;;
19231;SDS011;9750;48.730;10.294;2024-03-02T07:15:49;41.80;;;19.77;;
19231;SDS011;9750;48.730;10.294;2024-03-02T07:18:41;25.57;;;17.53;;
19231;SDS011;9750;48.730;10.294;2024-03-02T07:21:16;25.47;;;17.67;;
19231;SDS011;9750;48.730;10.294;2024-03-02T07:23:44;24.37;;;16.93;;
19231;SDS011;9750;48.730;10.294;2024-03-02T07:29:04;23.80;;;16.87;;
19231;SDS011;9750;48.730;10.294;2024-03-02T07:31:31;29.33;;;19.17;;
19231;SDS011;9750;48.730;10.294;2024-03-02T07:33:58;18.10;;;16.13;;
19231;SDS011;9750;48.730;10.294;2024-03-02T07:36:25;30.43;;;20.37;;
19231;SDS011;9750;48.730;10.294;2024-03-02T07:38:54;22.20;;;17.07;;
19231;SDS011;9750;48.730;10.294;2024-03-02T07:41:22;28.17;;;23.97;;
19231;SDS011;9750;48.730;10.294;2024-03-02T07:43:49;17.90;;;16.00;;
19231;SDS011;9750;48.730;10.294;2024-03-02T07:46:16;19.97;;;17.87;;
19231;SDS011;9750;48.730;10.294;2024-03-02T07:48:44;22.37;;;18.77;;
19231;SDS011;9750;48.730;10.294;2024-03-02T07:51:11;21.63;;;18.40;;
19231;SDS011;9750;48.730;10.294;2024-03-02T07:53:39;23.27;;;19.53;;
19231;SDS011;9750;48.730;10.294;2024-03-02T07:56:07;21.30;;;17.50;;
19231;SDS011;9750;48.730;10.294;2024-03-02T07:58:35;18.87;;;16.27;;
19231;SDS011;9750;48.730;10.294;2024-03-02T08:01:02;19.13;;;16.67;;
19231;SDS011;9750;48.730;10.294;2024-03-02T08:03:30;24.33;;;21.67;;
19231;SDS011;9750;48.730;10.294;2024-03-02T08:05:59;18.50;;;15.93;;
19231;SDS011;9750;48.730;10.294;2024-03-02T08:08:26;23.30;;;20.90;;
19231;SDS011;9750;48.730;10.294;2024-03-02T08:10:54;19.67;;;17.57;;
19231;SDS011;9750;48.730;10.294;2024-03-02T08:13:22;17.77;;;15.87;;
19231;SDS011;9750;48.730;10.294;2024-03-02T08:15:50;18.30;;;16.10;;
19231;SDS011;9750;48.730;10.294;2024-03-02T08:18:17;17.37;;;15.60;;
19231;SDS011;9750;48.730;10.294;2024-03-02T08:20:45;18.60;;;16.60;;
19231;SDS011;9750;48.730;10.294;2024-03-02T08:23:12;18.67;;;16.67;;
19231;SDS011;9750;48.730;10.294;2024-03-02T08:25:39;18.87;;;16.73;;
19231;SDS011;9750;48.730;10.294;2024-03-02T08:28:07;21.67;;;18.43;;
19231;SDS011;9750;48.730;10.294;2024-03-02T08:30:35;18.33;;;16.33;;
19231;SDS011;9750;48.730;10.294;2024-03-02T08:33:03;17.93;;;16.03;;
19231;SDS011;9750;48.730;10.294;2024-03-02T08:35:31;18.30;;;16.00;;
19231;SDS011;9750;48.730;10.294;2024-03-02T08:38:00;17.47;;;15.57;;
19231;SDS011;9750;48.730;10.294;2024-03-02T08:40:28;18.10;;;16.20;;
19231;SDS011;9750;48.730;10.294;2024-03-02T08:42:56;17.17;;;15.37;;
19231;SDS011;9750;48.730;10.294;2024-03-02T08:45:23;17.00;;;15.20;;
19231;SDS011;9750;48.730;10.294;2024-03-02T08:47:52;18.00;;;16.10;;
19231;SDS011;9750;48.730;10.294;2024-03-02T08:50:19;18.40;;;16.47;;
19231;SDS011;9750;48.730;10.294;2024-03-02T08:52:46;17.50;;;15.70;;
19231;SDS011;9750;48.730;10.294;2024-03-02T08:55:14;18.63;;;16.67;;
19231;SDS011;9750;48.730;10.294;2024-03-02T08:57:41;17.53;;;15.73;;
19231;SDS011;9750;48.730;10.294;2024-03-02T09:00:09;17.97;;;16.00;;
19231;SDS011;9750;48.730;10.294;2024-03-02T09:02:37;17.20;;;15.30;;
19231;SDS011;9750;48.730;10.294;2024-03-02T09:05:06;16.47;;;14.63;;
19231;SDS011;9750;48.730;10.294;2024-03-02T09:07:34;15.50;;;14.00;;
19231;SDS011;9750;48.730;10.294;2024-03-02T09:10:04;16.07;;;14.43;;
19231;SDS011;9750;48.730;10.294;2024-03-02T09:12:31;18.30;;;16.17;;
19231;SDS011;9750;48.730;10.294;2024-03-02T09:14:59;17.00;;;15.27;;
19231;SDS011;9750;48.730;10.294;2024-03-02T09:17:28;18.70;;;16.80;;
19231;SDS011;9750;48.730;10.294;2024-03-02T09:19:55;18.07;;;16.17;;
19231;SDS011;9750;48.730;10.294;2024-03-02T09:22:24;16.43;;;14.73;;
19231;SDS011;9750;48.730;10.294;2024-03-02T09:24:51;18.20;;;15.33;;
19231;SDS011;9750;48.730;10.294;2024-03-02T09:27:18;17.83;;;15.87;;
19231;SDS011;9750;48.730;10.294;2024-03-02T09:29:46;17.57;;;15.77;;
19231;SDS011;9750;48.730;10.294;2024-03-02T09:32:13;16.30;;;14.60;;
19231;SDS011;9750;48.730;10.294;2024-03-02T09:34:40;15.83;;;14.23;;
19231;SDS011;9750;48.730;10.294;2024-03-02T09:37:08;15.40;;;13.73;;
19231;SDS011;9750;48.730;10.294;2024-03-02T09:39:37;14.13;;;12.67;;
19231;SDS011;9750;48.730;10.294;2024-03-02T09:42:05;15.20;;;13.63;;
19231;SDS011;9750;48.730;10.294;2024-03-02T09:44:33;15.00;;;13.50;;
19231;SDS011;9750;48.730;10.294;2024-03-02T09:47:00;15.13;;;13.43;;
19231;SDS011;9750;48.730;10.294;2024-03-02T09:49:27;15.70;;;14.10;;
19231;SDS011;9750;48.730;10.294;2024-03-02T09:51:55;15.63;;;14.07;;
19231;SDS011;9750;48.730;10.294;2024-03-02T09:54:23;16.07;;;14.37;;
19231;SDS011;9750;48.730;10.294;2024-03-02T09:56:52;15.07;;;13.43;;
19231;SDS011;9750;48.730;10.294;2024-03-02T09:59:19;14.63;;;13.13;;
19231;SDS011;9750;48.730;10.294;2024-03-02T10:01:56;14.77;;;13.20;;
19231;SDS011;9750;48.730;10.294;2024-03-02T10:04:25;15.33;;;13.77;;
19231;SDS011;9750;48.730;10.294;2024-03-02T10:07:00;14.73;;;13.13;;
19231;SDS011;9750;48.730;10.294;2024-03-02T10:09:39;13.73;;;12.30;;
19231;SDS011;9750;48.730;10.294;2024-03-02T10:12:09;14.97;;;13.47;;
19231;SDS011;9750;48.730;10.294;2024-03-02T10:14:37;14.60;;;13.10;;
19231;SDS011;9750;48.730;10.294;2024-03-02T10:17:05;12.60;;;11.30;;
19231;SDS011;9750;48.730;10.294;2024-03-02T10:19:34;14.10;;;12.80;;
19231;SDS011;9750;48.730;10.294;2024-03-02T10:22:02;13.33;;;12.03;;
19231;SDS011;9750;48.730;10.294;2024-03-02T10:24:40;13.00;;;11.77;;
19231;SDS011;9750;48.730;10.294;2024-03-02T10:27:15;16.33;;;11.97;;
19231;SDS011;9750;48.730;10.294;2024-03-02T10:29:45;12.90;;;11.43;;
19231;SDS011;9750;48.730;10.294;2024-03-02T10:32:13;15.67;;;12.10;;
19231;SDS011;9750;48.730;10.294;2024-03-02T10:34:41;12.70;;;11.40;;
19231;SDS011;9750;48.730;10.294;2024-03-02T10:37:10;12.67;;;11.43;;
19231;SDS011;9750;48.730;10.294;2024-03-02T10:39:38;11.67;;;10.57;;
19231;SDS011;9750;48.730;10.294;2024-03-02T10:42:06;11.10;;;9.93;;
19231;SDS011;9750;48.730;10.294;2024-03-02T10:44:35;10.90;;;9.90;;
19231;SDS011;9750;48.730;10.294;2024-03-02T10:47:03;11.17;;;10.07;;
19231;SDS011;9750;48.730;10.294;2024-03-02T10:49:31;11.87;;;10.77;;
19231;SDS011;9750;48.730;10.294;2024-03-02T10:51:59;12.07;;;10.97;;
19231;SDS011;9750;48.730;10.294;2024-03-02T10:54:27;10.70;;;9.60;;
19231;SDS011;9750;48.730;10.294;2024-03-02T10:57:01;10.47;;;9.47;;
19231;SDS011;9750;48.730;10.294;2024-03-02T10:59:32;11.37;;;10.27;;
19231;SDS011;9750;48.730;10.294;2024-03-02T11:02:02;11.83;;;10.67;;
19231;SDS011;9750;48.730;10.294;2024-03-02T11:04:32;10.40;;;9.40;;
19231;SDS011;9750;48.730;10.294;2024-03-02T11:07:02;12.43;;;11.23;;
19231;SDS011;9750;48.730;10.294;2024-03-02T11:09:33;12.10;;;10.93;;
19231;SDS011;9750;48.730;10.294;2024-03-02T11:12:02;11.20;;;10.10;;
19231;SDS011;9750;48.730;10.294;2024-03-02T11:14:32;10.97;;;9.77;;
19231;SDS011;9750;48.730;10.294;2024-03-02T11:17:03;11.07;;;10.03;;
19231;SDS011;9750;48.730;10.294;2024-03-02T11:19:31;11.20;;;10.10;;
19231;SDS011;9750;48.730;10.294;2024-03-02T11:21:59;10.57;;;9.57;;
19231;SDS011;9750;48.730;10.294;2024-03-02T11:24:28;10.53;;;9.53;;
19231;SDS011;9750;48.730;10.294;2024-03-02T11:26:58;11.13;;;10.00;;
19231;SDS011;9750;48.730;10.294;2024-03-02T11:29:44;10.13;;;9.13;;
19231;SDS011;9750;48.730;10.294;2024-03-02T11:32:21;9.17;;;8.27;;
19231;SDS011;9750;48.730;10.294;2024-03-02T11:34:49;8.13;;;7.33;;
19231;SDS011;9750;48.730;10.294;2024-03-02T11:37:17;8.63;;;7.80;;
19231;SDS011;9750;48.730;10.294;2024-03-02T11:39:46;8.43;;;7.63;;
19231;SDS011;9750;48.730;10.294;2024-03-02T11:42:16;8.03;;;6.53;;
19231;SDS011;9750;48.730;10.294;2024-03-02T11:44:45;6.80;;;6.20;;
19231;SDS011;9750;48.730;10.294;2024-03-02T11:47:12;7.37;;;6.67;;
19231;SDS011;9750;48.730;10.294;2024-03-02T11:49:43;8.83;;;8.03;;
19231;SDS011;9750;48.730;10.294;2024-03-02T11:52:12;8.67;;;7.87;;
19231;SDS011;9750;48.730;10.294;2024-03-02T11:54:41;9.10;;;7.97;;
19231;SDS011;9750;48.730;10.294;2024-03-02T11:57:12;8.00;;;7.20;;
19231;SDS011;9750;48.730;10.294;2024-03-02T11:59:40;7.90;;;7.10;;
19231;SDS011;9750;48.730;10.294;2024-03-02T12:02:12;7.90;;;7.20;;
19231;SDS011;9750;48.730;10.294;2024-03-02T12:04:43;7.43;;;6.73;;
19231;SDS011;9750;48.730;10.294;2024-03-02T12:07:12;6.10;;;5.60;;
19231;SDS011;9750;48.730;10.294;2024-03-02T12:09:44;7.07;;;6.47;;
19231;SDS011;9750;48.730;10.294;2024-03-02T12:12:11;8.20;;;7.40;;
19231;SDS011;9750;48.730;10.294;2024-03-02T12:14:49;8.47;;;7.57;;
19231;SDS011;9750;48.730;10.294;2024-03-02T12:17:17;7.83;;;7.10;;
19231;SDS011;9750;48.730;10.294;2024-03-02T12:19:46;7.60;;;6.90;;
19231;SDS011;9750;48.730;10.294;2024-03-02T12:22:13;8.07;;;7.37;;
19231;SDS011;9750;48.730;10.294;2024-03-02T12:24:41;8.53;;;7.63;;
19231;SDS011;9750;48.730;10.294;2024-03-02T12:27:10;9.03;;;8.13;;
19231;SDS011;9750;48.730;10.294;2024-03-02T12:29:38;7.70;;;7.00;;
19231;SDS011;9750;48.730;10.294;2024-03-02T12:32:06;9.73;;;8.37;;
19231;SDS011;9750;48.730;10.294;2024-03-02T12:34:33;7.30;;;6.63;;
19231;SDS011;9750;48.730;10.294;2024-03-02T12:37:02;8.23;;;7.43;;
19231;SDS011;9750;48.730;10.294;2024-03-02T12:39:30;8.40;;;7.60;;
19231;SDS011;9750;48.730;10.294;2024-03-02T12:41:58;11.17;;;9.40;;
19231;SDS011;9750;48.730;10.294;2024-03-02T12:44:25;7.77;;;7.07;;
19231;SDS011;9750;48.730;10.294;2024-03-02T12:46:52;10.53;;;9.43;;
19231;SDS011;9750;48.730;10.294;2024-03-02T12:49:21;8.73;;;7.93;;
19231;SDS011;9750;48.730;10.294;2024-03-02T12:51:49;11.77;;;10.43;;
19231;SDS011;9750;48.730;10.294;2024-03-02T12:54:21;13.83;;;10.67;;
19231;SDS011;9750;48.730;10.294;2024-03-02T12:56:50;8.87;;;8.00;;
19231;SDS011;9750;48.730;10.294;2024-03-02T12:59:19;6.63;;;6.00;;
19231;SDS011;9750;48.730;10.294;2024-03-02T13:01:51;7.13;;;6.53;;
19231;SDS011;9750;48.730;10.294;2024-03-02T13:04:21;7.47;;;6.77;;
19231;SDS011;9750;48.730;10.294;2024-03-02T13:06:49;8.20;;;7.40;;
19231;SDS011;9750;48.730;10.294;2024-03-02T13:09:20;8.17;;;7.37;;
19231;SDS011;9750;48.730;10.294;2024-03-02T13:11:47;8.13;;;7.33;;
19231;SDS011;9750;48.730;10.294;2024-03-02T13:14:15;8.80;;;7.43;;
19231;SDS011;9750;48.730;10.294;2024-03-02T13:16:42;8.13;;;7.33;;
19231;SDS011;9750;48.730;10.294;2024-03-02T13:19:12;8.27;;;7.47;;
19231;SDS011;9750;48.730;10.294;2024-03-02T13:21:39;7.83;;;7.13;;
19231;SDS011;9750;48.730;10.294;2024-03-02T13:24:07;7.90;;;7.10;;
19231;SDS011;9750;48.730;10.294;2024-03-02T13:26:36;7.53;;;6.73;;
19231;SDS011;9750;48.730;10.294;2024-03-02T13:29:03;7.83;;;7.13;;
19231;SDS011;9750;48.730;10.294;2024-03-02T13:31:30;7.00;;;6.30;;
19231;SDS011;9750;48.730;10.294;2024-03-02T13:33:57;7.10;;;6.40;;
19231;SDS011;9750;48.730;10.294;2024-03-02T13:36:25;9.70;;;8.83;;
19231;SDS011;9750;48.730;10.294;2024-03-02T13:38:52;10.43;;;9.43;;
19231;SDS011;9750;48.730;10.294;2024-03-02T13:41:19;10.77;;;9.60;;
19231;SDS011;9750;48.730;10.294;2024-03-02T13:43:48;10.53;;;9.53;;
19231;SDS011;9750;48.730;10.294;2024-03-02T13:46:15;11.10;;;10.00;;
19231;SDS011;9750;48.730;10.294;2024-03-02T13:48:42;10.50;;;9.50;;
19231;SDS011;9750;48.730;10.294;2024-03-02T13:51:10;13.83;;;11.33;;
19231;SDS011;9750;48.730;10.294;2024-03-02T13:53:37;11.43;;;10.33;;
19231;SDS011;9750;48.730;10.294;2024-03-02T13:56:05;12.13;;;10.50;;
19231;SDS011;9750;48.730;10.294;2024-03-02T13:58:33;12.80;;;11.03;;
19231;SDS011;9750;48.730;10.294;2024-03-02T14:01:02;11.93;;;10.70;;
19231;SDS011;9750;48.730;10.294;2024-03-02T14:03:30;12.03;;;10.83;;
19231;SDS011;9750;48.730;10.294;2024-03-02T14:05:57;11.73;;;10.53;;
19231;SDS011;9750;48.730;10.294;2024-03-02T14:08:24;13.17;;;11.40;;
19231;SDS011;9750;48.730;10.294;2024-03-02T14:10:52;11.60;;;10.40;;
19231;SDS011;9750;48.730;10.294;2024-03-02T14:13:20;12.57;;;11.27;;
19231;SDS011;9750;48.730;10.294;2024-03-02T14:15:48;12.60;;;11.30;;
19231;SDS011;9750;48.730;10.294;2024-03-02T14:18:17;13.00;;;10.70;;
19231;SDS011;9750;48.730;10.294;2024-03-02T14:20:45;12.60;;;11.13;;
19231;SDS011;9750;48.730;10.294;2024-03-02T14:23:17;12.00;;;10.70;;
19231;SDS011;9750;48.730;10.294;2024-03-02T14:25:44;11.97;;;10.70;;
19231;SDS011;9750;48.730;10.294;2024-03-02T14:28:11;11.23;;;10.13;;
19231;SDS011;9750;48.730;10.294;2024-03-02T14:30:41;10.53;;;9.53;;
19231;SDS011;9750;48.730;10.294;2024-03-02T14:33:08;11.00;;;9.87;;
19231;SDS011;9750;48.730;10.294;2024-03-02T14:38:59;14.90;;;12.40;;
19231;SDS011;9750;48.730;10.294;2024-03-02T14:41:27;14.03;;;12.50;;
19231;SDS011;9750;48.730;10.294;2024-03-02T14:43:54;14.77;;;13.20;;
19231;SDS011;9750;48.730;10.294;2024-03-02T14:46:21;16.03;;;12.50;;
19231;SDS011;9750;48.730;10.294;2024-03-02T14:48:48;14.70;;;12.43;;